createdAt,value
2022-11-29T00:01:21.198Z,43.53
2022-11-29T00:03:48.322Z,48.40
2022-11-29T00:06:17.964Z,46.58
2022-11-29T00:08:45.778Z,48.60
2022-11-29T00:11:35.928Z,47.90
2022-11-29T00:14:03.047Z,51.08
2022-11-29T00:16:30.145Z,46.47
2022-11-29T00:18:57.096Z,50.30
2022-11-29T00:21:24.218Z,49.83
2022-11-29T00:24:11.899Z,51.33
2022-11-29T00:27:13.829Z,52.15
2022-11-29T00:29:54.379Z,48.00
2022-11-29T00:32:21.596Z,51.22
2022-11-29T00:35:09.938Z,51.88
2022-11-29T00:37:51.149Z,49.85
2022-11-29T00:40:18.313Z,49.70
2022-11-29T00:43:05.867Z,47.33
2022-11-29T00:45:46.464Z,46.03
2022-11-29T00:48:13.402Z,50.17
2022-11-29T00:50:40.493Z,47.85
2022-11-29T00:53:27.845Z,51.13
2022-11-29T00:56:28.837Z,49.15
2022-11-29T00:59:19.485Z,45.85
2022-11-29T01:01:46.509Z,50.42
2022-11-29T01:04:13.576Z,46.72
2022-11-29T01:06:40.856Z,50.05
2022-11-29T01:09:07.997Z,49.30
2022-11-29T01:11:35.559Z,48.00
2022-11-29T01:14:04.884Z,48.85
2022-11-29T01:16:32.951Z,45.45
2022-11-29T01:19:00.570Z,49.90
2022-11-29T01:21:27.717Z,44.10
2022-11-29T01:23:55.201Z,42.80
2022-11-29T01:26:43.895Z,42.75
2022-11-29T01:29:24.780Z,39.60
2022-11-29T01:31:51.720Z,40.60
2022-11-29T01:34:38.899Z,38.53
2022-11-29T01:37:19.524Z,36.75
2022-11-29T01:39:46.634Z,38.42
2022-11-29T01:42:33.879Z,35.67
2022-11-29T01:45:23.293Z,37.30
2022-11-29T01:47:55.180Z,36.95
2022-11-29T01:50:22.320Z,41.13
2022-11-29T01:52:49.598Z,39.17
2022-11-29T01:55:16.967Z,38.70
2022-11-29T01:57:44.460Z,38.90
2022-11-29T02:00:16.125Z,39.67
2022-11-29T02:03:07.435Z,38.08
2022-11-29T02:05:57.894Z,35.45
2022-11-29T02:08:58.921Z,32.73
2022-11-29T02:11:49.188Z,33.92
2022-11-29T02:14:28.282Z,36.08
2022-11-29T02:16:56.803Z,36.90
2022-11-29T02:19:36.015Z,37.42
2022-11-29T02:22:10.727Z,36.78
2022-11-29T02:24:56.277Z,37.85
2022-11-29T02:27:57.096Z,35.72
2022-11-29T02:30:37.579Z,35.53
2022-11-29T02:33:48.900Z,34.35
2022-11-29T02:37:08.567Z,39.80
2022-11-29T02:39:57.607Z,35.03
2022-11-29T02:43:04.878Z,35.75
2022-11-29T02:46:19.158Z,34.40
2022-11-29T02:49:03.102Z,35.38
2022-11-29T02:52:00.922Z,35.10
2022-11-29T02:54:50.443Z,34.65
2022-11-29T02:57:23.502Z,31.92
2022-11-29T03:00:05.341Z,33.80
2022-11-29T03:03:30.944Z,37.92
2022-11-29T03:06:12.197Z,34.70
2022-11-29T03:09:00.876Z,35.25
2022-11-29T03:11:53.152Z,36.30
2022-11-29T03:14:52.894Z,35.05
2022-11-29T03:18:19.950Z,33.13
2022-11-29T03:21:26.977Z,34.50
2022-11-29T03:24:26.122Z,32.88
2022-11-29T03:27:04.178Z,34.75
2022-11-29T03:29:40.614Z,37.17
2022-11-29T03:32:27.425Z,31.98
2022-11-29T03:35:28.935Z,33.25
2022-11-29T03:38:32.976Z,37.00
2022-11-29T03:41:57.973Z,39.08
2022-11-29T03:45:14.944Z,36.47
2022-11-29T03:48:07.663Z,39.05
2022-11-29T03:50:49.743Z,36.17
2022-11-29T03:53:37.184Z,38.65
2022-11-29T03:56:41.888Z,37.60
2022-11-29T03:59:37.237Z,36.20
2022-11-29T04:02:42.028Z,36.08
2022-11-29T04:05:53.528Z,32.33
2022-11-29T04:08:51.392Z,34.97
2022-11-29T04:11:30.460Z,36.45
2022-11-29T04:14:26.849Z,37.72
2022-11-29T04:17:31.964Z,37.20
2022-11-29T04:21:00.039Z,34.25
2022-11-29T04:24:02.320Z,34.00
2022-11-29T04:26:38.315Z,36.83
2022-11-29T04:29:30.929Z,35.75
2022-11-29T04:32:34.631Z,38.50
2022-11-29T04:35:27.990Z,36.33
2022-11-29T04:38:45.418Z,33.20
2022-11-29T04:42:00.023Z,34.08
2022-11-29T04:45:12.000Z,34.80
2022-11-29T04:48:18.297Z,37.53
2022-11-29T04:51:04.044Z,35.33
2022-11-29T04:53:40.786Z,37.45
2022-11-29T04:56:53.002Z,35.72
2022-11-29T05:00:06.422Z,36.00
2022-11-29T05:03:08.887Z,33.67
2022-11-29T05:06:06.290Z,34.13
2022-11-29T05:08:36.234Z,35.17
2022-11-29T05:11:23.441Z,37.22
2022-11-29T05:13:59.086Z,36.05
2022-11-29T05:16:44.909Z,35.88
2022-11-29T05:19:19.081Z,37.28
2022-11-29T05:21:58.236Z,34.30
2022-11-29T05:24:44.262Z,37.78
2022-11-29T05:27:42.309Z,33.50
2022-11-29T05:30:22.242Z,34.78
2022-11-29T05:33:11.967Z,35.30
2022-11-29T05:36:58.005Z,42.08
2022-11-29T05:39:50.809Z,37.65
2022-11-29T05:42:50.009Z,36.35
2022-11-29T05:46:08.350Z,36.65
2022-11-29T05:48:53.453Z,34.60
2022-11-29T05:51:22.449Z,37.92
2022-11-29T05:54:16.039Z,36.85
2022-11-29T05:56:47.577Z,39.38
2022-11-29T05:59:21.900Z,39.53
2022-11-29T06:02:27.193Z,39.90
2022-11-29T06:05:42.028Z,40.03
2022-11-29T06:09:16.792Z,39.17
2022-11-29T06:12:06.148Z,38.67
2022-11-29T06:15:13.748Z,39.70
2022-11-29T06:18:32.049Z,39.17
2022-11-29T06:21:40.273Z,41.22
2022-11-29T06:26:49.286Z,37.70
2022-11-29T06:29:51.014Z,40.65
2022-11-29T06:32:44.157Z,37.22
2022-11-29T06:35:56.032Z,40.28
2022-11-29T06:38:57.029Z,37.80
2022-11-29T06:41:58.025Z,41.92
2022-11-29T06:44:59.002Z,42.70
2022-11-29T06:47:49.204Z,40.22
2022-11-29T06:51:07.099Z,42.85
2022-11-29T06:54:11.160Z,35.80
2022-11-29T06:57:02.916Z,43.60
2022-11-29T06:59:39.089Z,45.00
2022-11-29T07:02:45.056Z,40.75
2022-11-29T07:05:28.766Z,43.90
2022-11-29T07:08:01.789Z,43.72
2022-11-29T07:10:32.553Z,45.85
2022-11-29T07:13:00.046Z,46.45
2022-11-29T07:15:28.243Z,41.88
2022-11-29T07:18:10.767Z,43.00
2022-11-29T07:21:08.241Z,45.55
2022-11-29T07:23:45.572Z,44.30
2022-11-29T07:26:35.314Z,48.55
2022-11-29T07:29:24.309Z,46.13
2022-11-29T07:32:27.035Z,51.20
2022-11-29T07:35:20.371Z,52.08
2022-11-29T07:38:41.065Z,53.63
2022-11-29T07:42:05.179Z,55.55
2022-11-29T07:45:24.566Z,52.22
2022-11-29T07:47:52.210Z,54.92
2022-11-29T07:50:21.406Z,52.78
2022-11-29T07:52:49.309Z,57.55
2022-11-29T07:55:38.011Z,72.18
2022-11-29T07:58:05.407Z,58.42
2022-11-29T08:01:01.080Z,50.58
2022-11-29T08:04:02.118Z,52.40
2022-11-29T08:07:03.120Z,52.10
2022-11-29T08:10:04.119Z,49.63
2022-11-29T08:13:05.097Z,46.92
2022-11-29T08:16:06.104Z,50.58
2022-11-29T08:19:07.083Z,50.92
2022-11-29T08:21:48.330Z,49.90
2022-11-29T08:24:15.298Z,54.40
2022-11-29T08:26:42.343Z,52.40
2022-11-29T08:29:09.313Z,57.13
2022-11-29T08:31:41.695Z,56.80
2022-11-29T08:34:37.131Z,56.67
2022-11-29T08:37:31.379Z,60.90
2022-11-29T08:40:12.603Z,74.28
2022-11-29T08:43:00.110Z,65.82
2022-11-29T08:46:06.178Z,64.35
2022-11-29T08:48:48.025Z,48.97
2022-11-29T08:51:35.117Z,49.13
2022-11-29T08:54:36.180Z,48.28
2022-11-29T08:57:40.194Z,44.22
2022-11-29T09:00:21.635Z,49.05
2022-11-29T09:02:48.885Z,56.10
2022-11-29T09:05:16.028Z,66.05
2022-11-29T09:07:43.612Z,57.40
2022-11-29T09:10:11.444Z,55.55
2022-11-29T09:12:41.565Z,57.35
2022-11-29T09:15:10.358Z,52.63
2022-11-29T09:17:37.858Z,51.05
2022-11-29T09:23:01.478Z,48.22
2022-11-29T09:25:34.885Z,48.65
2022-11-29T09:28:12.193Z,43.05
2022-11-29T09:30:41.472Z,39.25
2022-11-29T09:33:30.175Z,42.78
2022-11-29T09:36:28.849Z,44.55
2022-11-29T09:39:03.067Z,38.17
2022-11-29T09:42:11.243Z,45.97
2022-11-29T09:45:04.175Z,39.15
2022-11-29T09:47:53.262Z,38.67
2022-11-29T09:50:43.186Z,36.10
2022-11-29T09:53:28.993Z,34.33
2022-11-29T09:56:11.408Z,33.08
2022-11-29T09:58:47.620Z,37.15
2022-11-29T10:01:22.055Z,30.25
2022-11-29T10:04:19.209Z,25.70
2022-11-29T10:08:01.205Z,27.60
2022-11-29T10:10:50.553Z,27.05
2022-11-29T10:13:25.424Z,28.25
2022-11-29T10:16:01.945Z,28.55
2022-11-29T10:18:34.669Z,28.23
2022-11-29T10:21:12.870Z,26.50
2022-11-29T10:23:51.227Z,27.15
2022-11-29T10:26:20.866Z,26.85
2022-11-29T10:28:49.488Z,27.45
2022-11-29T10:31:36.523Z,30.67
2022-11-29T10:34:35.283Z,23.52
2022-11-29T10:37:24.267Z,26.02
2022-11-29T10:39:58.758Z,23.90
2022-11-29T10:43:01.149Z,23.05
2022-11-29T10:45:56.100Z,22.63
2022-11-29T10:48:32.329Z,22.73
2022-11-29T10:51:31.452Z,23.88
2022-11-29T10:54:33.867Z,23.83
2022-11-29T10:57:02.433Z,20.00
2022-11-29T10:59:49.219Z,23.23
2022-11-29T11:02:50.165Z,24.20
2022-11-29T11:05:40.199Z,23.20
2022-11-29T11:08:44.190Z,20.75
2022-11-29T11:11:46.150Z,22.05
2022-11-29T11:14:33.225Z,22.75
2022-11-29T11:17:30.130Z,23.33
2022-11-29T11:20:34.232Z,21.00
2022-11-29T11:23:27.336Z,22.05
2022-11-29T11:26:14.902Z,19.77
2022-11-29T11:29:00.489Z,21.83
2022-11-29T11:31:38.057Z,22.08
2022-11-29T11:34:46.470Z,22.58
2022-11-29T11:37:32.443Z,21.15
2022-11-29T11:40:18.382Z,20.30
2022-11-29T11:43:05.290Z,22.08
2022-11-29T11:45:53.596Z,20.25
2022-11-29T11:48:22.189Z,20.75
2022-11-29T11:50:56.397Z,21.42
2022-11-29T11:53:31.945Z,17.17
2022-11-29T11:56:26.197Z,19.73
2022-11-29T11:59:14.486Z,17.98
2022-11-29T12:01:41.461Z,19.83
2022-11-29T12:04:33.489Z,22.58
2022-11-29T12:07:45.213Z,18.98
2022-11-29T12:10:19.967Z,19.40
2022-11-29T12:12:49.324Z,19.60
2022-11-29T12:15:32.468Z,19.08
2022-11-29T12:18:34.263Z,19.23
2022-11-29T12:24:36.394Z,16.88
2022-11-29T12:27:06.165Z,20.98
2022-11-29T12:29:36.815Z,20.73
2022-11-29T12:32:10.182Z,20.13
2022-11-29T12:35:31.222Z,16.38
2022-11-29T12:38:34.358Z,21.17
2022-11-29T12:41:41.250Z,18.33
2022-11-29T12:44:31.080Z,18.60
2022-11-29T12:47:36.083Z,17.73
2022-11-29T12:50:42.318Z,17.88
2022-11-29T12:54:01.253Z,17.90
2022-11-29T12:57:09.282Z,18.02
2022-11-29T13:00:14.712Z,16.85
2022-11-29T13:02:52.977Z,18.02
2022-11-29T13:06:00.241Z,15.38
2022-11-29T13:09:01.233Z,16.65
2022-11-29T13:11:53.183Z,18.73
2022-11-29T13:14:45.383Z,17.58
2022-11-29T13:17:20.769Z,18.45
2022-11-29T13:19:58.423Z,16.92
2022-11-29T13:22:30.883Z,18.27
2022-11-29T13:25:01.594Z,15.15
2022-11-29T13:27:37.165Z,16.08
2022-11-29T13:30:05.203Z,16.23
2022-11-29T13:32:36.409Z,18.20
2022-11-29T13:35:33.619Z,13.95
2022-11-29T13:38:49.254Z,15.05
2022-11-29T13:42:24.265Z,17.00
2022-11-29T13:45:17.166Z,16.53
2022-11-29T13:48:09.249Z,14.65
2022-11-29T13:51:11.290Z,16.77
2022-11-29T13:53:53.032Z,17.60
2022-11-29T13:56:54.269Z,15.27
2022-11-29T14:00:02.278Z,15.60
2022-11-29T14:02:42.901Z,18.92
2022-11-29T14:05:25.900Z,16.25
2022-11-29T14:08:27.314Z,16.90
2022-11-29T14:11:04.002Z,17.10
2022-11-29T14:13:47.853Z,15.07
2022-11-29T14:16:52.315Z,17.35
2022-11-29T14:19:53.275Z,15.85
2022-11-29T14:23:19.306Z,15.98
2022-11-29T14:26:00.743Z,17.55
2022-11-29T14:28:29.932Z,17.40
2022-11-29T14:31:07.768Z,18.90
2022-11-29T14:34:10.406Z,20.38
2022-11-29T14:37:28.393Z,19.60
2022-11-29T14:40:17.942Z,17.70
2022-11-29T14:43:07.385Z,22.27
2022-11-29T14:46:30.471Z,20.65
2022-11-29T14:49:40.357Z,18.85
2022-11-29T14:52:45.290Z,19.75
2022-11-29T14:58:31.045Z,19.53
2022-11-29T15:01:06.624Z,21.20
2022-11-29T15:03:45.382Z,18.95
2022-11-29T15:06:27.310Z,20.55
2022-11-29T15:08:57.588Z,21.70
2022-11-29T15:11:33.976Z,21.33
2022-11-29T15:14:24.260Z,20.20
2022-11-29T15:16:58.552Z,22.17
2022-11-29T15:19:40.647Z,21.23
2022-11-29T15:22:27.779Z,21.90
2022-11-29T15:25:12.335Z,20.48
2022-11-29T15:27:57.403Z,20.48
2022-11-29T15:30:39.167Z,20.42
2022-11-29T15:33:22.341Z,24.30
2022-11-29T15:36:24.339Z,21.55
2022-11-29T15:39:11.406Z,21.83
2022-11-29T15:42:17.357Z,20.67
2022-11-29T15:45:29.638Z,22.33
2022-11-29T15:48:44.296Z,22.45
2022-11-29T15:51:37.122Z,21.70
2022-11-29T15:54:13.026Z,23.35
2022-11-29T15:56:56.021Z,21.05
2022-11-29T15:59:31.991Z,21.33
2022-11-29T16:02:05.704Z,22.67
2022-11-29T16:04:33.187Z,23.85
2022-11-29T16:07:20.524Z,25.25
2022-11-29T16:10:12.763Z,25.52
2022-11-29T16:12:53.828Z,25.75
2022-11-29T16:15:40.424Z,24.63
2022-11-29T16:18:26.351Z,23.20
2022-11-29T16:21:05.983Z,23.17
2022-11-29T16:23:56.374Z,24.23
2022-11-29T16:26:41.949Z,22.98
2022-11-29T16:29:30.799Z,22.40
2022-11-29T16:31:58.243Z,23.85
2022-11-29T16:34:45.691Z,25.35
2022-11-29T16:37:55.388Z,24.95
2022-11-29T16:40:49.330Z,25.65
2022-11-29T16:44:02.534Z,26.10
2022-11-29T16:46:55.648Z,24.92
2022-11-29T16:49:34.938Z,26.73
2022-11-29T16:52:03.890Z,24.58
2022-11-29T16:54:34.304Z,28.38
2022-11-29T16:57:06.682Z,29.20
2022-11-29T16:59:35.372Z,25.55
2022-11-29T17:02:26.472Z,27.13
2022-11-29T17:05:07.305Z,24.67
2022-11-29T17:07:38.232Z,27.40
2022-11-29T17:10:08.398Z,28.92
2022-11-29T17:12:35.583Z,26.13
2022-11-29T17:15:02.696Z,28.80
2022-11-29T17:17:50.364Z,30.30
2022-11-29T17:20:31.104Z,27.17
2022-11-29T17:22:58.091Z,27.75
2022-11-29T17:25:25.118Z,29.58
2022-11-29T17:27:52.373Z,27.77
2022-11-29T17:30:39.379Z,29.80
2022-11-29T17:33:43.329Z,26.35
2022-11-29T17:36:51.427Z,29.80
2022-11-29T17:39:32.642Z,31.45
2022-11-29T17:42:19.407Z,30.40
2022-11-29T17:45:00.036Z,32.63
2022-11-29T17:47:26.967Z,29.45
2022-11-29T17:49:53.921Z,32.40
2022-11-29T17:52:20.952Z,32.63
2022-11-29T17:54:47.861Z,36.95
2022-11-29T17:57:14.888Z,35.35
2022-11-29T17:59:41.870Z,34.05
2022-11-29T18:02:29.460Z,35.33
2022-11-29T18:05:23.620Z,33.63
2022-11-29T18:08:17.390Z,33.83
2022-11-29T18:11:13.650Z,30.25
2022-11-29T18:13:40.735Z,29.30
2022-11-29T18:16:13.863Z,33.70
2022-11-29T18:18:41.515Z,33.17
2022-11-29T18:21:10.147Z,32.08
2022-11-29T18:23:39.823Z,29.77
2022-11-29T18:26:11.489Z,29.85
2022-11-29T18:28:58.387Z,32.70
2022-11-29T18:32:00.406Z,30.60
2022-11-29T18:34:40.942Z,28.92
2022-11-29T18:37:12.355Z,32.50
2022-11-29T18:39:42.401Z,33.33
2022-11-29T18:42:29.415Z,32.50
2022-11-29T18:45:10.324Z,29.08
2022-11-29T18:47:57.461Z,30.15
2022-11-29T18:50:38.019Z,32.33
2022-11-29T18:53:04.862Z,28.50
2022-11-29T18:55:32.057Z,28.42
2022-11-29T18:57:58.960Z,29.38
2022-11-29T19:00:25.999Z,30.85
2022-11-29T19:02:53.389Z,31.65
2022-11-29T19:05:20.285Z,29.80
2022-11-29T19:08:07.541Z,32.08
2022-11-29T19:11:08.425Z,28.52
2022-11-29T19:14:04.064Z,32.80
2022-11-29T19:16:34.516Z,30.80
2022-11-29T19:19:02.119Z,28.02
2022-11-29T19:21:32.017Z,28.20
2022-11-29T19:24:21.390Z,30.10
2022-11-29T19:27:03.240Z,29.27
2022-11-29T19:29:50.640Z,28.38
2022-11-29T19:32:51.447Z,29.58
2022-11-29T19:35:32.010Z,29.02
2022-11-29T19:37:59.098Z,33.00
2022-11-29T19:40:26.473Z,30.02
2022-11-29T19:43:13.463Z,30.25
2022-11-29T19:45:54.076Z,31.85
2022-11-29T19:48:21.306Z,33.55
2022-11-29T19:50:48.247Z,31.70
2022-11-29T19:53:16.150Z,31.92
2022-11-29T19:55:44.247Z,33.47
2022-11-29T19:58:31.440Z,32.60
2022-11-29T20:01:42.879Z,34.30
2022-11-29T20:04:44.445Z,33.22
2022-11-29T20:07:28.740Z,33.75
2022-11-29T20:09:55.690Z,31.35
2022-11-29T20:12:22.848Z,32.95
2022-11-29T20:15:09.481Z,31.00
2022-11-29T20:18:11.440Z,28.17
2022-11-29T20:21:26.545Z,28.77
2022-11-29T20:24:07.869Z,28.55
2022-11-29T20:26:38.213Z,30.35
2022-11-29T20:29:08.320Z,32.22
2022-11-29T20:31:56.534Z,33.25
2022-11-29T20:34:57.452Z,30.05
2022-11-29T20:38:03.465Z,33.17
2022-11-29T20:41:02.647Z,30.30
2022-11-29T20:43:58.008Z,33.55
2022-11-29T20:46:25.987Z,29.50
2022-11-29T20:48:54.208Z,31.33
2022-11-29T20:51:36.874Z,34.33
2022-11-29T20:54:03.973Z,35.35
2022-11-29T20:56:30.862Z,32.47
2022-11-29T20:58:57.971Z,34.95
2022-11-29T21:01:47.546Z,35.15
2022-11-29T21:04:48.766Z,33.03
2022-11-29T21:07:49.731Z,35.13
2022-11-29T21:10:50.597Z,34.50
2022-11-29T21:13:34.436Z,36.22
2022-11-29T21:16:02.259Z,37.25
2022-11-29T21:18:33.682Z,35.75
2022-11-29T21:21:16.090Z,38.45
2022-11-29T21:24:07.490Z,35.83
2022-11-29T21:26:41.937Z,36.70
2022-11-29T21:29:14.911Z,36.50
2022-11-29T21:32:07.513Z,36.00
2022-11-29T21:35:08.508Z,40.55
2022-11-29T21:38:12.517Z,40.00
2022-11-29T21:41:13.489Z,39.67
2022-11-29T21:44:08.265Z,39.88
2022-11-29T21:47:09.512Z,40.67
2022-11-29T21:49:52.650Z,40.50
2022-11-29T21:52:22.773Z,38.20
2022-11-29T21:54:50.239Z,41.00
2022-11-29T21:57:17.190Z,41.17
2022-11-29T21:59:44.218Z,45.67
2022-11-29T22:02:11.272Z,48.03
2022-11-29T22:04:38.312Z,43.95
2022-11-29T22:07:05.315Z,40.22
2022-11-29T22:09:52.641Z,40.47
2022-11-29T22:12:34.901Z,37.75
2022-11-29T22:15:25.063Z,41.33
2022-11-29T22:18:26.590Z,40.00
2022-11-29T22:21:08.830Z,37.65
2022-11-29T22:23:36.328Z,42.75
2022-11-29T22:26:07.434Z,42.70
2022-11-29T22:28:37.167Z,43.20
2022-11-29T22:31:07.448Z,41.95
2022-11-29T22:33:34.870Z,44.40
2022-11-29T22:36:11.099Z,44.08
2022-11-29T22:38:58.865Z,39.90
2022-11-29T22:41:59.651Z,40.97
2022-11-29T22:44:40.090Z,44.72
2022-11-29T22:47:07.189Z,44.03
2022-11-29T22:49:35.921Z,43.83
2022-11-29T22:52:24.775Z,44.65
2022-11-29T22:55:06.621Z,41.13
2022-11-29T22:57:33.885Z,43.22
2022-11-29T23:00:22.575Z,45.70
2022-11-29T23:03:23.550Z,44.97
2022-11-29T23:06:17.485Z,48.22
2022-11-29T23:08:47.105Z,46.38
2022-11-29T23:11:17.007Z,45.42
2022-11-29T23:13:44.567Z,45.22
2022-11-29T23:16:34.573Z,42.97
2022-11-29T23:19:36.530Z,48.05
2022-11-29T23:22:38.543Z,46.95
2022-11-29T23:25:19.077Z,46.80
2022-11-29T23:27:45.978Z,48.45
2022-11-29T23:30:13.686Z,46.83
2022-11-29T23:32:40.557Z,45.72
2022-11-29T23:35:27.566Z,44.70
2022-11-29T23:38:08.343Z,44.47
2022-11-29T23:40:35.423Z,48.63
2022-11-29T23:43:36.613Z,43.75
2022-11-29T23:46:30.726Z,45.45
2022-11-29T23:49:11.255Z,44.33
2022-11-29T23:51:38.243Z,45.78
2022-11-29T23:54:05.331Z,47.88
2022-11-29T23:56:35.456Z,45.42
2022-11-29T23:59:02.660Z,45.85
